createdAt,value
2022-10-08T00:00:51.654Z,1.60
2022-10-08T00:04:33.945Z,1.52
2022-10-08T00:08:15.882Z,1.25
2022-10-08T00:11:57.849Z,1.63
2022-10-08T00:15:40.378Z,1.77
2022-10-08T00:19:22.183Z,1.35
2022-10-08T00:23:04.018Z,1.67
2022-10-08T00:26:46.109Z,1.48
2022-10-08T00:30:27.942Z,1.15
2022-10-08T00:34:16.347Z,1.15
2022-10-08T00:37:58.937Z,1.80
2022-10-08T00:41:41.678Z,2.08
2022-10-08T00:45:23.710Z,1.63
2022-10-08T00:49:20.326Z,1.42
2022-10-08T00:53:07.746Z,1.40
2022-10-08T00:56:52.537Z,1.48
2022-10-08T01:00:34.471Z,0.90
2022-10-08T01:04:16.574Z,1.35
2022-10-08T01:08:08.254Z,1.67
2022-10-08T01:11:58.155Z,1.67
2022-10-08T01:16:03.207Z,1.63
2022-10-08T01:19:48.995Z,1.75
2022-10-08T01:23:55.454Z,1.55
2022-10-08T01:27:43.705Z,1.13
2022-10-08T01:31:33.991Z,1.45
2022-10-08T01:35:25.700Z,1.00
2022-10-08T01:39:13.009Z,1.65
2022-10-08T01:42:59.106Z,1.33
2022-10-08T01:46:45.013Z,1.42
2022-10-08T01:50:33.534Z,1.15
2022-10-08T01:54:19.271Z,1.83
2022-10-08T01:58:04.814Z,1.40
2022-10-08T02:01:52.219Z,1.38
2022-10-08T02:05:37.633Z,1.80
2022-10-08T02:09:19.550Z,1.70
2022-10-08T02:13:01.735Z,1.67
2022-10-08T02:16:54.711Z,1.98
2022-10-08T02:20:44.725Z,1.30
2022-10-08T02:24:39.964Z,1.38
2022-10-08T02:28:37.360Z,1.65
2022-10-08T02:32:23.702Z,1.25
2022-10-08T02:36:08.450Z,2.28
2022-10-08T02:40:02.491Z,1.40
2022-10-08T02:43:47.820Z,1.70
2022-10-08T02:47:33.054Z,2.13
2022-10-08T02:51:18.709Z,1.17
2022-10-08T02:55:01.989Z,1.70
2022-10-08T02:58:44.224Z,1.40
2022-10-08T03:02:37.885Z,1.85
2022-10-08T03:06:20.111Z,1.67
2022-10-08T03:10:05.958Z,2.05
2022-10-08T03:13:50.090Z,1.45
2022-10-08T03:17:37.182Z,1.67
2022-10-08T03:21:19.238Z,0.80
2022-10-08T03:25:01.495Z,1.65
2022-10-08T03:28:43.332Z,1.52
2022-10-08T03:32:25.938Z,1.58
2022-10-08T03:36:07.842Z,0.98
2022-10-08T03:39:49.664Z,1.27
2022-10-08T03:43:33.667Z,1.48
2022-10-08T03:47:15.634Z,1.92
2022-10-08T03:51:03.324Z,1.10
2022-10-08T03:54:45.160Z,1.30
2022-10-08T03:58:26.998Z,1.25
2022-10-08T04:02:08.928Z,1.42
2022-10-08T04:05:50.989Z,1.77
2022-10-08T04:09:32.807Z,2.65
2022-10-08T04:13:15.796Z,1.27
2022-10-08T04:16:57.912Z,1.38
2022-10-08T04:20:43.417Z,1.42
2022-10-08T04:24:25.383Z,2.13
2022-10-08T04:28:07.236Z,1.48
2022-10-08T04:31:49.074Z,2.33
2022-10-08T04:35:30.915Z,1.20
2022-10-08T04:39:12.868Z,1.98
2022-10-08T04:42:54.701Z,2.10
2022-10-08T04:46:36.700Z,1.40
2022-10-08T04:50:18.587Z,1.45
2022-10-08T04:54:01.789Z,1.60
2022-10-08T04:57:43.598Z,1.48
2022-10-08T05:01:27.001Z,2.92
2022-10-08T05:05:09.231Z,1.20
2022-10-08T05:08:51.600Z,1.17
2022-10-08T05:12:33.521Z,1.45
2022-10-08T05:16:17.349Z,1.63
2022-10-08T05:19:59.207Z,1.52
2022-10-08T05:23:44.839Z,1.80
2022-10-08T05:27:26.685Z,1.02
2022-10-08T05:31:08.656Z,1.75
2022-10-08T05:34:50.489Z,1.50
2022-10-08T05:38:34.977Z,1.27
2022-10-08T05:42:17.159Z,1.80
2022-10-08T05:45:58.997Z,2.97
2022-10-08T05:49:40.804Z,2.45
2022-10-08T05:53:22.631Z,1.88
2022-10-08T05:57:04.665Z,1.90
2022-10-08T06:01:00.241Z,2.33
2022-10-08T06:04:42.149Z,1.60
2022-10-08T06:08:24.003Z,1.40
2022-10-08T06:12:06.828Z,2.22
2022-10-08T06:16:07.175Z,1.55
2022-10-08T06:19:49.055Z,1.98
2022-10-08T06:23:31.015Z,1.52
2022-10-08T06:27:12.843Z,2.03
2022-10-08T06:30:54.688Z,1.95
2022-10-08T06:34:36.575Z,1.85
2022-10-08T06:38:18.928Z,1.83
2022-10-08T06:42:00.737Z,1.63
2022-10-08T06:45:44.310Z,2.10
2022-10-08T06:49:26.801Z,1.90
2022-10-08T06:53:10.092Z,1.88
2022-10-08T06:56:51.904Z,1.98
2022-10-08T07:00:33.797Z,2.20
2022-10-08T07:04:15.649Z,2.42
2022-10-08T07:07:57.493Z,1.98
2022-10-08T07:11:39.622Z,2.42
2022-10-08T07:15:21.481Z,2.00
2022-10-08T07:19:03.496Z,1.70
2022-10-08T07:22:45.665Z,1.73
2022-10-08T07:26:32.391Z,2.30
2022-10-08T07:30:14.414Z,1.83
2022-10-08T07:33:57.471Z,2.53
2022-10-08T07:37:42.763Z,1.73
2022-10-08T07:41:25.741Z,1.70
2022-10-08T07:45:08.170Z,2.25
2022-10-08T07:48:50.944Z,2.50
2022-10-08T07:52:32.748Z,1.83
2022-10-08T07:56:17.190Z,2.25
2022-10-08T07:59:59.057Z,1.33
2022-10-08T08:03:40.961Z,1.98
2022-10-08T08:07:22.790Z,2.03
2022-10-08T08:11:06.736Z,2.15
2022-10-08T08:14:48.563Z,2.35
2022-10-08T08:18:32.343Z,1.95
2022-10-08T08:22:14.151Z,2.65
2022-10-08T08:25:55.927Z,2.65
2022-10-08T08:29:37.758Z,2.72
2022-10-08T08:33:19.565Z,2.40
2022-10-08T08:37:01.404Z,1.90
2022-10-08T08:40:43.186Z,2.72
2022-10-08T08:44:46.700Z,1.83
2022-10-08T08:48:33.078Z,2.53
2022-10-08T08:52:21.921Z,2.30
2022-10-08T08:56:06.397Z,2.05
2022-10-08T08:59:50.139Z,1.90
2022-10-08T09:03:41.143Z,2.33
2022-10-08T09:07:26.943Z,2.45
2022-10-08T09:11:16.491Z,2.25
2022-10-08T09:15:01.043Z,1.40
2022-10-08T09:18:49.715Z,2.00
2022-10-08T09:22:37.169Z,2.50
2022-10-08T09:26:37.977Z,2.20
2022-10-08T09:30:41.465Z,1.73
2022-10-08T09:34:23.769Z,1.73
2022-10-08T09:38:06.229Z,2.15
2022-10-08T09:42:07.232Z,1.52
2022-10-08T09:45:50.132Z,2.15
2022-10-08T09:49:34.382Z,2.10
2022-10-08T09:53:16.598Z,1.90
2022-10-08T09:57:00.272Z,1.80
2022-10-08T10:00:42.115Z,1.90
2022-10-08T10:04:31.102Z,2.05
2022-10-08T10:08:41.085Z,1.95
2022-10-08T10:12:26.125Z,2.00
2022-10-08T10:16:25.750Z,1.73
2022-10-08T10:20:19.483Z,2.33
2022-10-08T10:24:12.177Z,2.13
2022-10-08T10:28:00.041Z,1.60
2022-10-08T10:31:52.620Z,1.70
2022-10-08T10:35:40.691Z,2.15
2022-10-08T10:39:32.196Z,1.90
2022-10-08T10:43:31.151Z,1.25
2022-10-08T10:47:14.494Z,1.23
2022-10-08T10:51:25.363Z,1.10
2022-10-08T10:55:07.109Z,0.73
2022-10-08T10:59:02.943Z,0.90
2022-10-08T11:02:59.572Z,0.90
2022-10-08T11:06:53.249Z,0.93
2022-10-08T11:11:05.502Z,1.05
2022-10-08T11:15:22.505Z,1.40
2022-10-08T11:19:11.153Z,0.80
2022-10-08T11:23:14.960Z,1.00
2022-10-08T11:27:24.715Z,1.10
2022-10-08T11:31:13.616Z,1.67
2022-10-08T11:35:34.690Z,1.50
2022-10-08T11:39:21.156Z,1.75
2022-10-08T11:43:06.088Z,1.60
2022-10-08T11:46:48.048Z,1.10
2022-10-08T11:50:36.117Z,1.40
2022-10-08T11:54:38.300Z,1.40
2022-10-08T11:58:28.425Z,2.05
2022-10-08T12:02:33.039Z,1.20
2022-10-08T12:06:15.171Z,1.17
2022-10-08T12:10:23.146Z,1.83
2022-10-08T12:14:17.200Z,2.00
2022-10-08T12:18:26.031Z,1.60
2022-10-08T12:22:25.258Z,1.67
2022-10-08T12:26:09.116Z,1.10
2022-10-08T12:30:16.425Z,1.33
2022-10-08T12:34:17.098Z,1.65
2022-10-08T12:38:13.676Z,1.17
2022-10-08T12:42:13.806Z,1.40
2022-10-08T12:46:11.874Z,1.20
2022-10-08T12:49:59.555Z,1.27
2022-10-08T12:53:48.187Z,1.33
2022-10-08T12:57:39.361Z,1.23
2022-10-08T13:01:21.986Z,0.85
2022-10-08T13:05:25.783Z,1.00
2022-10-08T13:09:25.484Z,1.30
2022-10-08T13:13:32.811Z,1.15
2022-10-08T13:17:31.680Z,1.30
2022-10-08T13:21:36.769Z,1.30
2022-10-08T13:25:37.623Z,1.10
2022-10-08T13:29:22.610Z,1.20
2022-10-08T13:33:11.459Z,1.25
2022-10-08T13:36:56.453Z,1.10
2022-10-08T13:40:38.362Z,1.17
2022-10-08T13:44:20.466Z,1.00
2022-10-08T13:48:02.440Z,1.00
2022-10-08T13:51:44.271Z,0.82
2022-10-08T13:55:32.442Z,0.82
2022-10-08T13:59:14.384Z,0.95
2022-10-08T14:02:56.338Z,0.70
2022-10-08T14:06:39.283Z,0.90
2022-10-08T14:10:22.158Z,0.98
2022-10-08T14:14:04.066Z,1.23
2022-10-08T14:17:46.462Z,1.00
2022-10-08T14:21:28.492Z,1.00
2022-10-08T14:25:15.189Z,0.80
2022-10-08T14:28:58.568Z,0.60
2022-10-08T14:32:40.523Z,0.75
2022-10-08T14:36:27.810Z,1.10
2022-10-08T14:40:18.811Z,0.93
2022-10-08T14:44:00.864Z,0.70
2022-10-08T14:47:42.738Z,0.70
2022-10-08T14:51:24.609Z,0.63
2022-10-08T14:55:07.021Z,0.73
2022-10-08T14:58:52.123Z,0.55
2022-10-08T15:02:37.812Z,0.57
2022-10-08T15:10:01.563Z,0.60
2022-10-08T15:13:43.396Z,0.60
2022-10-08T15:17:25.328Z,0.63
2022-10-08T15:21:07.463Z,0.52
2022-10-08T15:24:49.353Z,0.70
2022-10-08T15:28:32.015Z,0.60
2022-10-08T15:32:15.934Z,0.40
2022-10-08T15:35:57.943Z,1.20
2022-10-08T15:39:39.830Z,0.73
2022-10-08T15:43:29.046Z,1.27
2022-10-08T15:47:12.170Z,1.45
2022-10-08T15:51:00.519Z,0.68
2022-10-08T15:54:42.945Z,0.82
2022-10-08T15:58:48.890Z,1.00
2022-10-08T16:02:26.739Z,1.15
2022-10-08T16:06:10.970Z,0.68
2022-10-08T16:09:52.828Z,1.05
2022-10-08T16:13:37.236Z,0.80
2022-10-08T16:17:44.020Z,0.93
2022-10-08T16:21:27.344Z,1.65
2022-10-08T16:25:09.447Z,1.33
2022-10-08T16:28:56.997Z,1.27
2022-10-08T16:32:38.865Z,1.23
2022-10-08T16:36:20.807Z,1.48
2022-10-08T16:40:04.023Z,1.58
2022-10-08T16:43:49.313Z,1.45
2022-10-08T16:47:32.288Z,1.38
2022-10-08T16:51:14.383Z,1.92
2022-10-08T16:54:56.309Z,2.05
2022-10-08T16:58:39.185Z,1.70
2022-10-08T17:02:25.679Z,1.80
2022-10-08T17:06:09.967Z,2.58
2022-10-08T17:09:53.051Z,2.45
2022-10-08T17:13:35.000Z,2.22
2022-10-08T17:17:16.866Z,2.33
2022-10-08T17:21:00.050Z,1.77
2022-10-08T17:24:42.514Z,1.75
2022-10-08T17:28:33.279Z,1.98
2022-10-08T17:32:15.130Z,2.90
2022-10-08T17:36:24.663Z,3.20
2022-10-08T17:40:08.439Z,5.40
2022-10-08T17:43:50.939Z,6.53
2022-10-08T17:47:32.754Z,10.10
2022-10-08T17:51:16.931Z,9.57
2022-10-08T17:54:58.748Z,8.77
2022-10-08T17:58:40.645Z,7.82
2022-10-08T18:02:23.335Z,6.07
2022-10-08T18:06:06.478Z,5.57
2022-10-08T18:09:50.011Z,4.55
2022-10-08T18:13:32.167Z,3.40
2022-10-08T18:17:13.976Z,3.42
2022-10-08T18:20:58.854Z,3.25
2022-10-08T18:24:40.692Z,3.47
2022-10-08T18:28:22.578Z,3.50
2022-10-08T18:32:04.472Z,3.90
2022-10-08T18:35:46.280Z,4.22
2022-10-08T18:39:28.779Z,3.25
2022-10-08T18:43:10.723Z,3.38
2022-10-08T18:46:52.581Z,3.33
2022-10-08T18:50:34.391Z,4.95
2022-10-08T18:54:16.485Z,7.80
2022-10-08T18:57:58.291Z,8.80
2022-10-08T19:01:41.631Z,8.55
2022-10-08T19:05:23.541Z,8.45
2022-10-08T19:09:06.462Z,6.53
2022-10-08T19:12:48.622Z,6.22
2022-10-08T19:16:31.247Z,4.90
2022-10-08T19:20:13.145Z,4.90
2022-10-08T19:23:57.642Z,4.45
2022-10-08T19:27:40.683Z,4.60
2022-10-08T19:31:33.848Z,4.15
2022-10-08T19:35:15.795Z,3.90
2022-10-08T19:39:06.721Z,3.38
2022-10-08T19:42:48.853Z,4.13
2022-10-08T19:46:32.179Z,4.53
2022-10-08T19:50:14.094Z,3.83
2022-10-08T19:53:56.112Z,3.85
2022-10-08T19:57:37.919Z,3.25
2022-10-08T20:01:22.150Z,3.25
2022-10-08T20:05:04.292Z,3.88
2022-10-08T20:08:46.276Z,4.50
2022-10-08T20:12:28.253Z,3.80
2022-10-08T20:16:13.236Z,4.38
2022-10-08T20:20:05.303Z,4.25
2022-10-08T20:23:57.416Z,4.53
2022-10-08T20:27:39.342Z,5.32
2022-10-08T20:31:24.358Z,4.68
2022-10-08T20:35:07.032Z,5.35
2022-10-08T20:38:48.952Z,6.70
2022-10-08T20:42:32.274Z,6.32
2022-10-08T20:46:15.538Z,5.78
2022-10-08T20:49:57.530Z,5.82
2022-10-08T20:53:39.917Z,7.50
2022-10-08T20:57:21.735Z,7.40
2022-10-08T21:01:16.414Z,8.02
2022-10-08T21:04:58.365Z,6.53
2022-10-08T21:08:42.208Z,6.97
2022-10-08T21:12:24.043Z,6.28
2022-10-08T21:16:12.913Z,6.30
2022-10-08T21:19:54.916Z,5.30
2022-10-08T21:23:37.362Z,4.63
2022-10-08T21:27:19.211Z,3.53
2022-10-08T21:31:04.100Z,3.40
2022-10-08T21:34:46.423Z,3.88
2022-10-08T21:38:28.471Z,4.03
2022-10-08T21:42:10.397Z,5.35
2022-10-08T21:45:56.958Z,6.60
2022-10-08T21:49:38.851Z,6.72
2022-10-08T21:53:20.651Z,6.47
2022-10-08T21:57:02.514Z,6.45
2022-10-08T22:00:44.446Z,6.30
2022-10-08T22:04:26.452Z,6.68
2022-10-08T22:08:08.246Z,6.00
2022-10-08T22:11:51.832Z,5.18
2022-10-08T22:15:33.656Z,5.35
2022-10-08T22:19:15.721Z,4.25
2022-10-08T22:22:57.757Z,4.03
2022-10-08T22:26:42.668Z,4.60
2022-10-08T22:30:25.146Z,4.18
2022-10-08T22:34:09.600Z,4.05
2022-10-08T22:37:51.406Z,3.85
2022-10-08T22:45:13.675Z,4.18
2022-10-08T22:49:00.213Z,4.38
2022-10-08T22:52:42.065Z,6.57
2022-10-08T22:56:27.219Z,4.20
2022-10-08T23:00:10.392Z,5.18
2022-10-08T23:03:53.254Z,6.75
2022-10-08T23:07:35.086Z,7.60
2022-10-08T23:11:16.971Z,5.65
2022-10-08T23:14:58.807Z,5.18
2022-10-08T23:18:43.554Z,6.57
2022-10-08T23:22:25.463Z,7.10
2022-10-08T23:26:08.384Z,7.15
2022-10-08T23:29:50.245Z,6.72
2022-10-08T23:33:32.434Z,6.40
2022-10-08T23:37:14.276Z,5.80
2022-10-08T23:41:00.098Z,5.93
2022-10-08T23:44:42.013Z,8.13
2022-10-08T23:48:23.934Z,7.55
2022-10-08T23:52:05.990Z,7.50
2022-10-08T23:55:48.029Z,7.03
2022-10-08T23:59:29.922Z,6.40
